sensor_id;sensor_type;location;lat;lon;timestamp;temperature;humidity
78704;SHT31;68034;51.966;5.676;2023-05-10T00:01:44;16.0;78.6
78704;SHT31;68034;51.966;5.676;2023-05-10T00:04:12;16.0;78.4
78704;SHT31;68034;51.966;5.676;2023-05-10T00:06:41;16.0;78.4
78704;SHT31;68034;51.966;5.676;2023-05-10T00:09:12;16.0;78.5
78704;SHT31;68034;51.966;5.676;2023-05-10T00:11:41;16.0;78.5
78704;SHT31;68034;51.966;5.676;2023-05-10T00:14:13;16.0;78.4
78704;SHT31;68034;51.966;5.676;2023-05-10T00:16:42;16.0;78.1
78704;SHT31;68034;51.966;5.676;2023-05-10T00:19:11;16.0;78.2
78704;SHT31;68034;51.966;5.676;2023-05-10T00:21:40;16.0;77.9
78704;SHT31;68034;51.966;5.676;2023-05-10T00:24:09;16.0;78.0
78704;SHT31;68034;51.966;5.676;2023-05-10T00:26:38;16.1;77.9
78704;SHT31;68034;51.966;5.676;2023-05-10T00:29:08;16.1;78.2
78704;SHT31;68034;51.966;5.676;2023-05-10T00:31:37;16.1;78.1
78704;SHT31;68034;51.966;5.676;2023-05-10T00:34:06;16.1;78.4
78704;SHT31;68034;51.966;5.676;2023-05-10T00:36:35;16.1;78.1
78704;SHT31;68034;51.966;5.676;2023-05-10T00:39:03;16.1;78.3
78704;SHT31;68034;51.966;5.676;2023-05-10T00:41:33;16.0;78.0
78704;SHT31;68034;51.966;5.676;2023-05-10T00:44:02;16.0;78.3
78704;SHT31;68034;51.966;5.676;2023-05-10T00:46:31;16.0;78.4
78704;SHT31;68034;51.966;5.676;2023-05-10T00:49:00;16.1;78.1
78704;SHT31;68034;51.966;5.676;2023-05-10T00:51:30;16.1;78.0
78704;SHT31;68034;51.966;5.676;2023-05-10T00:53:59;16.1;78.0
78704;SHT31;68034;51.966;5.676;2023-05-10T00:56:31;16.1;78.1
78704;SHT31;68034;51.966;5.676;2023-05-10T00:59:01;16.1;78.1
78704;SHT31;68034;51.966;5.676;2023-05-10T01:01:30;16.1;77.9
78704;SHT31;68034;51.966;5.676;2023-05-10T01:03:59;16.2;77.8
78704;SHT31;68034;51.966;5.676;2023-05-10T01:06:28;16.2;77.9
78704;SHT31;68034;51.966;5.676;2023-05-10T01:08:57;16.2;78.3
78704;SHT31;68034;51.966;5.676;2023-05-10T01:11:26;16.2;78.1
78704;SHT31;68034;51.966;5.676;2023-05-10T01:13:57;16.2;78.0
78704;SHT31;68034;51.966;5.676;2023-05-10T01:16:28;16.2;77.9
78704;SHT31;68034;51.966;5.676;2023-05-10T01:18:58;16.2;77.8
78704;SHT31;68034;51.966;5.676;2023-05-10T01:21:37;16.2;77.8
78704;SHT31;68034;51.966;5.676;2023-05-10T01:28:49;16.2;77.6
78704;SHT31;68034;51.966;5.676;2023-05-10T01:31:50;16.2;77.7
78704;SHT31;68034;51.966;5.676;2023-05-10T01:34:25;16.2;77.6
78704;SHT31;68034;51.966;5.676;2023-05-10T01:37:04;16.2;77.6
78704;SHT31;68034;51.966;5.676;2023-05-10T01:39:45;16.1;77.7
78704;SHT31;68034;51.966;5.676;2023-05-10T01:42:19;16.1;77.7
78704;SHT31;68034;51.966;5.676;2023-05-10T01:44:56;16.1;77.7
78704;SHT31;68034;51.966;5.676;2023-05-10T01:47:32;16.1;77.7
78704;SHT31;68034;51.966;5.676;2023-05-10T01:50:09;16.1;77.9
78704;SHT31;68034;51.966;5.676;2023-05-10T01:52:47;16.1;77.6
78704;SHT31;68034;51.966;5.676;2023-05-10T01:55:19;16.1;77.5
78704;SHT31;68034;51.966;5.676;2023-05-10T01:57:52;16.1;77.5
78704;SHT31;68034;51.966;5.676;2023-05-10T02:00:25;16.1;77.6
78704;SHT31;68034;51.966;5.676;2023-05-10T02:02:55;16.1;77.5
78704;SHT31;68034;51.966;5.676;2023-05-10T02:05:25;16.1;77.4
78704;SHT31;68034;51.966;5.676;2023-05-10T02:07:58;16.1;77.5
78704;SHT31;68034;51.966;5.676;2023-05-10T02:10:31;16.1;77.6
78704;SHT31;68034;51.966;5.676;2023-05-10T02:13:02;16.2;77.1
78704;SHT31;68034;51.966;5.676;2023-05-10T02:15:33;16.2;76.9
78704;SHT31;68034;51.966;5.676;2023-05-10T02:18:04;16.2;76.9
78704;SHT31;68034;51.966;5.676;2023-05-10T02:20:35;16.2;76.7
78704;SHT31;68034;51.966;5.676;2023-05-10T02:23:05;16.2;76.9
78704;SHT31;68034;51.966;5.676;2023-05-10T02:25:37;16.2;76.9
78704;SHT31;68034;51.966;5.676;2023-05-10T02:28:11;16.2;76.9
78704;SHT31;68034;51.966;5.676;2023-05-10T02:30:41;16.2;77.0
78704;SHT31;68034;51.966;5.676;2023-05-10T02:33:11;16.2;76.9
78704;SHT31;68034;51.966;5.676;2023-05-10T02:35:41;16.2;77.0
78704;SHT31;68034;51.966;5.676;2023-05-10T02:38:10;16.2;76.8
78704;SHT31;68034;51.966;5.676;2023-05-10T02:40:41;16.2;76.3
78704;SHT31;68034;51.966;5.676;2023-05-10T02:43:13;16.2;76.2
78704;SHT31;68034;51.966;5.676;2023-05-10T02:45:46;16.2;76.1
78704;SHT31;68034;51.966;5.676;2023-05-10T02:48:16;16.2;75.6
78704;SHT31;68034;51.966;5.676;2023-05-10T02:50:46;16.2;75.7
78704;SHT31;68034;51.966;5.676;2023-05-10T02:53:22;16.2;75.9
78704;SHT31;68034;51.966;5.676;2023-05-10T02:55:58;16.2;76.2
78704;SHT31;68034;51.966;5.676;2023-05-10T02:58:30;16.2;75.9
78704;SHT31;68034;51.966;5.676;2023-05-10T03:01:01;16.1;75.6
78704;SHT31;68034;51.966;5.676;2023-05-10T03:03:30;16.1;75.8
78704;SHT31;68034;51.966;5.676;2023-05-10T03:05:59;16.1;75.3
78704;SHT31;68034;51.966;5.676;2023-05-10T03:08:28;16.1;75.3
78704;SHT31;68034;51.966;5.676;2023-05-10T03:11:13;16.1;75.4
78704;SHT31;68034;51.966;5.676;2023-05-10T03:13:55;16.1;75.4
78704;SHT31;68034;51.966;5.676;2023-05-10T03:16:32;16.1;75.6
78704;SHT31;68034;51.966;5.676;2023-05-10T03:19:09;16.0;75.4
78704;SHT31;68034;51.966;5.676;2023-05-10T03:21:45;16.0;75.3
78704;SHT31;68034;51.966;5.676;2023-05-10T03:24:17;16.0;75.3
78704;SHT31;68034;51.966;5.676;2023-05-10T03:26:49;16.0;75.6
78704;SHT31;68034;51.966;5.676;2023-05-10T03:29:19;16.0;75.5
78704;SHT31;68034;51.966;5.676;2023-05-10T03:31:49;16.0;75.5
78704;SHT31;68034;51.966;5.676;2023-05-10T03:34:25;16.0;75.5
78704;SHT31;68034;51.966;5.676;2023-05-10T03:36:54;16.0;75.4
78704;SHT31;68034;51.966;5.676;2023-05-10T03:39:23;15.9;75.1
78704;SHT31;68034;51.966;5.676;2023-05-10T03:41:51;15.9;75.1
78704;SHT31;68034;51.966;5.676;2023-05-10T03:44:20;15.9;75.3
78704;SHT31;68034;51.966;5.676;2023-05-10T03:46:49;15.9;75.2
78704;SHT31;68034;51.966;5.676;2023-05-10T03:49:18;15.9;75.2
78704;SHT31;68034;51.966;5.676;2023-05-10T03:51:46;15.9;75.3
78704;SHT31;68034;51.966;5.676;2023-05-10T03:54:15;15.9;75.0
78704;SHT31;68034;51.966;5.676;2023-05-10T03:56:43;15.8;75.2
78704;SHT31;68034;51.966;5.676;2023-05-10T03:59:14;15.8;75.5
78704;SHT31;68034;51.966;5.676;2023-05-10T04:01:42;15.8;75.5
78704;SHT31;68034;51.966;5.676;2023-05-10T04:04:11;15.8;75.9
78704;SHT31;68034;51.966;5.676;2023-05-10T04:06:40;15.8;75.9
78704;SHT31;68034;51.966;5.676;2023-05-10T04:09:08;15.7;76.1
78704;SHT31;68034;51.966;5.676;2023-05-10T04:11:37;15.7;76.7
78704;SHT31;68034;51.966;5.676;2023-05-10T04:14:05;15.7;77.4
78704;SHT31;68034;51.966;5.676;2023-05-10T04:16:36;15.7;77.1
78704;SHT31;68034;51.966;5.676;2023-05-10T04:19:05;15.7;77.1
78704;SHT31;68034;51.966;5.676;2023-05-10T04:21:33;15.7;76.8
78704;SHT31;68034;51.966;5.676;2023-05-10T04:24:02;15.7;76.9
78704;SHT31;68034;51.966;5.676;2023-05-10T04:26:31;15.7;77.0
78704;SHT31;68034;51.966;5.676;2023-05-10T04:29:00;15.7;76.7
78704;SHT31;68034;51.966;5.676;2023-05-10T04:31:28;15.7;77.2
78704;SHT31;68034;51.966;5.676;2023-05-10T04:33:57;15.7;77.2
78704;SHT31;68034;51.966;5.676;2023-05-10T04:36:27;15.7;77.2
78704;SHT31;68034;51.966;5.676;2023-05-10T04:38:58;15.7;77.3
78704;SHT31;68034;51.966;5.676;2023-05-10T04:41:29;15.7;77.2
78704;SHT31;68034;51.966;5.676;2023-05-10T04:43:58;15.8;77.3
78704;SHT31;68034;51.966;5.676;2023-05-10T04:46:26;15.8;77.0
78704;SHT31;68034;51.966;5.676;2023-05-10T04:48:55;15.8;77.2
78704;SHT31;68034;51.966;5.676;2023-05-10T04:51:23;15.8;77.0
78704;SHT31;68034;51.966;5.676;2023-05-10T04:53:52;15.8;76.8
78704;SHT31;68034;51.966;5.676;2023-05-10T04:56:20;15.8;76.8
78704;SHT31;68034;51.966;5.676;2023-05-10T04:58:49;15.8;76.9
78704;SHT31;68034;51.966;5.676;2023-05-10T05:01:18;15.9;77.2
78704;SHT31;68034;51.966;5.676;2023-05-10T05:03:46;15.9;77.2
78704;SHT31;68034;51.966;5.676;2023-05-10T05:06:15;16.0;76.7
78704;SHT31;68034;51.966;5.676;2023-05-10T05:08:43;16.1;76.2
78704;SHT31;68034;51.966;5.676;2023-05-10T05:11:12;16.1;76.3
78704;SHT31;68034;51.966;5.676;2023-05-10T05:13:41;16.1;75.9
78704;SHT31;68034;51.966;5.676;2023-05-10T05:16:11;16.2;75.8
78704;SHT31;68034;51.966;5.676;2023-05-10T05:18:40;16.2;75.7
78704;SHT31;68034;51.966;5.676;2023-05-10T05:21:15;16.2;75.6
78704;SHT31;68034;51.966;5.676;2023-05-10T05:23:44;16.2;75.2
78704;SHT31;68034;51.966;5.676;2023-05-10T05:26:15;16.3;75.0
78704;SHT31;68034;51.966;5.676;2023-05-10T05:28:44;16.2;75.2
78704;SHT31;68034;51.966;5.676;2023-05-10T05:31:14;16.2;75.4
78704;SHT31;68034;51.966;5.676;2023-05-10T05:33:43;16.2;75.5
78704;SHT31;68034;51.966;5.676;2023-05-10T05:36:12;16.2;75.5
78704;SHT31;68034;51.966;5.676;2023-05-10T05:38:40;16.2;75.4
78704;SHT31;68034;51.966;5.676;2023-05-10T05:41:09;16.2;74.9
78704;SHT31;68034;51.966;5.676;2023-05-10T05:43:37;16.2;75.1
78704;SHT31;68034;51.966;5.676;2023-05-10T05:46:06;16.2;75.3
78704;SHT31;68034;51.966;5.676;2023-05-10T05:48:36;16.2;75.5
78704;SHT31;68034;51.966;5.676;2023-05-10T05:51:05;16.1;75.5
78704;SHT31;68034;51.966;5.676;2023-05-10T05:53:34;16.1;76.0
78704;SHT31;68034;51.966;5.676;2023-05-10T05:56:02;16.1;75.9
78704;SHT31;68034;51.966;5.676;2023-05-10T05:58:34;16.1;76.3
78704;SHT31;68034;51.966;5.676;2023-05-10T06:01:02;16.1;76.3
78704;SHT31;68034;51.966;5.676;2023-05-10T06:03:31;16.1;76.1
78704;SHT31;68034;51.966;5.676;2023-05-10T06:05:59;16.1;75.9
78704;SHT31;68034;51.966;5.676;2023-05-10T06:08:30;16.1;75.9
78704;SHT31;68034;51.966;5.676;2023-05-10T06:11:00;16.1;75.9
78704;SHT31;68034;51.966;5.676;2023-05-10T06:13:30;16.1;75.9
78704;SHT31;68034;51.966;5.676;2023-05-10T06:16:02;16.1;76.0
78704;SHT31;68034;51.966;5.676;2023-05-10T06:18:31;16.1;75.8
78704;SHT31;68034;51.966;5.676;2023-05-10T06:21:00;16.1;76.3
78704;SHT31;68034;51.966;5.676;2023-05-10T06:23:30;16.1;76.5
78704;SHT31;68034;51.966;5.676;2023-05-10T06:25:59;16.1;76.5
78704;SHT31;68034;51.966;5.676;2023-05-10T06:28:27;16.1;77.1
78704;SHT31;68034;51.966;5.676;2023-05-10T06:30:57;16.1;76.8
78704;SHT31;68034;51.966;5.676;2023-05-10T06:33:26;16.2;76.5
78704;SHT31;68034;51.966;5.676;2023-05-10T06:35:55;16.2;76.6
78704;SHT31;68034;51.966;5.676;2023-05-10T06:38:24;16.2;76.5
78704;SHT31;68034;51.966;5.676;2023-05-10T06:40:55;16.2;76.0
78704;SHT31;68034;51.966;5.676;2023-05-10T06:43:23;16.2;76.0
78704;SHT31;68034;51.966;5.676;2023-05-10T06:45:54;16.2;75.8
78704;SHT31;68034;51.966;5.676;2023-05-10T06:48:23;16.2;76.3
78704;SHT31;68034;51.966;5.676;2023-05-10T06:50:52;16.2;76.1
78704;SHT31;68034;51.966;5.676;2023-05-10T06:53:20;16.2;76.1
78704;SHT31;68034;51.966;5.676;2023-05-10T06:55:50;16.2;76.1
78704;SHT31;68034;51.966;5.676;2023-05-10T06:58:19;16.2;76.4
78704;SHT31;68034;51.966;5.676;2023-05-10T07:00:47;16.2;76.2
78704;SHT31;68034;51.966;5.676;2023-05-10T07:03:16;16.1;76.4
78704;SHT31;68034;51.966;5.676;2023-05-10T07:05:45;16.1;76.5
78704;SHT31;68034;51.966;5.676;2023-05-10T07:08:15;16.1;76.7
78704;SHT31;68034;51.966;5.676;2023-05-10T07:10:44;16.1;76.3
78704;SHT31;68034;51.966;5.676;2023-05-10T07:13:13;16.1;76.5
78704;SHT31;68034;51.966;5.676;2023-05-10T07:15:41;16.1;77.1
78704;SHT31;68034;51.966;5.676;2023-05-10T07:18:11;16.1;77.7
78704;SHT31;68034;51.966;5.676;2023-05-10T07:20:39;16.1;77.8
78704;SHT31;68034;51.966;5.676;2023-05-10T07:23:08;16.1;77.5
78704;SHT31;68034;51.966;5.676;2023-05-10T07:25:36;16.1;78.0
78704;SHT31;68034;51.966;5.676;2023-05-10T07:28:05;16.1;77.9
78704;SHT31;68034;51.966;5.676;2023-05-10T07:30:33;16.1;77.7
78704;SHT31;68034;51.966;5.676;2023-05-10T07:33:02;16.2;77.4
78704;SHT31;68034;51.966;5.676;2023-05-10T07:35:31;16.2;77.2
78704;SHT31;68034;51.966;5.676;2023-05-10T07:38:01;16.2;76.8
78704;SHT31;68034;51.966;5.676;2023-05-10T07:40:31;16.2;77.0
78704;SHT31;68034;51.966;5.676;2023-05-10T07:43:00;16.3;77.2
78704;SHT31;68034;51.966;5.676;2023-05-10T07:45:29;16.3;76.5
78704;SHT31;68034;51.966;5.676;2023-05-10T07:47:57;16.4;76.8
78704;SHT31;68034;51.966;5.676;2023-05-10T07:50:28;16.4;76.7
78704;SHT31;68034;51.966;5.676;2023-05-10T07:52:57;16.5;76.7
78704;SHT31;68034;51.966;5.676;2023-05-10T07:55:25;16.5;75.0
78704;SHT31;68034;51.966;5.676;2023-05-10T07:57:54;16.5;74.3
78704;SHT31;68034;51.966;5.676;2023-05-10T08:00:23;16.6;73.6
78704;SHT31;68034;51.966;5.676;2023-05-10T08:02:54;16.6;73.6
78704;SHT31;68034;51.966;5.676;2023-05-10T08:05:22;16.6;74.0
78704;SHT31;68034;51.966;5.676;2023-05-10T08:07:51;16.6;74.5
78704;SHT31;68034;51.966;5.676;2023-05-10T08:10:21;16.6;74.6
78704;SHT31;68034;51.966;5.676;2023-05-10T08:12:50;16.6;72.9
78704;SHT31;68034;51.966;5.676;2023-05-10T08:15:19;16.6;72.2
78704;SHT31;68034;51.966;5.676;2023-05-10T08:17:48;16.6;72.2
78704;SHT31;68034;51.966;5.676;2023-05-10T08:20:16;16.6;73.9
78704;SHT31;68034;51.966;5.676;2023-05-10T08:22:45;16.6;73.5
78704;SHT31;68034;51.966;5.676;2023-05-10T08:25:14;16.6;73.9
78704;SHT31;68034;51.966;5.676;2023-05-10T08:27:43;16.6;74.3
78704;SHT31;68034;51.966;5.676;2023-05-10T08:30:12;16.7;75.5
78704;SHT31;68034;51.966;5.676;2023-05-10T08:32:41;16.7;74.4
78704;SHT31;68034;51.966;5.676;2023-05-10T08:35:11;16.7;73.9
78704;SHT31;68034;51.966;5.676;2023-05-10T08:37:42;16.8;73.9
78704;SHT31;68034;51.966;5.676;2023-05-10T08:40:11;16.9;73.2
78704;SHT31;68034;51.966;5.676;2023-05-10T08:42:46;16.9;72.1
78704;SHT31;68034;51.966;5.676;2023-05-10T08:45:20;16.9;72.5
78704;SHT31;68034;51.966;5.676;2023-05-10T08:47:52;17.0;73.5
78704;SHT31;68034;51.966;5.676;2023-05-10T08:50:23;17.0;72.6
78704;SHT31;68034;51.966;5.676;2023-05-10T08:52:55;17.1;73.2
78704;SHT31;68034;51.966;5.676;2023-05-10T08:55:26;17.2;71.6
78704;SHT31;68034;51.966;5.676;2023-05-10T08:57:55;17.2;71.9
78704;SHT31;68034;51.966;5.676;2023-05-10T09:00:24;17.3;73.0
78704;SHT31;68034;51.966;5.676;2023-05-10T09:02:53;17.4;73.0
78704;SHT31;68034;51.966;5.676;2023-05-10T09:05:22;17.4;72.8
78704;SHT31;68034;51.966;5.676;2023-05-10T09:07:51;17.4;73.2
78704;SHT31;68034;51.966;5.676;2023-05-10T09:10:20;17.5;70.1
78704;SHT31;68034;51.966;5.676;2023-05-10T09:12:50;17.6;70.5
78704;SHT31;68034;51.966;5.676;2023-05-10T09:15:19;17.6;68.2
78704;SHT31;68034;51.966;5.676;2023-05-10T09:17:49;17.7;67.0
78704;SHT31;68034;51.966;5.676;2023-05-10T09:20:18;17.7;66.8
78704;SHT31;68034;51.966;5.676;2023-05-10T09:22:47;17.8;66.4
78704;SHT31;68034;51.966;5.676;2023-05-10T09:25:16;17.8;66.6
78704;SHT31;68034;51.966;5.676;2023-05-10T09:27:47;17.8;67.0
78704;SHT31;68034;51.966;5.676;2023-05-10T09:30:24;17.8;66.6
78704;SHT31;68034;51.966;5.676;2023-05-10T09:32:55;17.9;66.1
78704;SHT31;68034;51.966;5.676;2023-05-10T09:35:26;17.9;66.7
78704;SHT31;68034;51.966;5.676;2023-05-10T09:37:56;17.9;65.4
78704;SHT31;68034;51.966;5.676;2023-05-10T09:40:27;17.9;65.7
78704;SHT31;68034;51.966;5.676;2023-05-10T09:43:00;17.9;68.1
78704;SHT31;68034;51.966;5.676;2023-05-10T09:45:30;17.9;67.6
78704;SHT31;68034;51.966;5.676;2023-05-10T09:48:01;18.0;69.2
78704;SHT31;68034;51.966;5.676;2023-05-10T09:50:30;18.0;68.7
78704;SHT31;68034;51.966;5.676;2023-05-10T09:53:02;18.0;67.9
78704;SHT31;68034;51.966;5.676;2023-05-10T09:55:41;18.0;68.5
78704;SHT31;68034;51.966;5.676;2023-05-10T09:58:12;18.0;67.3
78704;SHT31;68034;51.966;5.676;2023-05-10T10:00:42;18.0;69.2
78704;SHT31;68034;51.966;5.676;2023-05-10T10:03:15;18.0;68.2
78704;SHT31;68034;51.966;5.676;2023-05-10T10:05:45;18.0;67.0
78704;SHT31;68034;51.966;5.676;2023-05-10T10:08:15;18.0;67.5
78704;SHT31;68034;51.966;5.676;2023-05-10T10:10:44;18.0;68.4
78704;SHT31;68034;51.966;5.676;2023-05-10T10:13:13;18.1;68.0
78704;SHT31;68034;51.966;5.676;2023-05-10T10:15:42;18.1;66.8
78704;SHT31;68034;51.966;5.676;2023-05-10T10:18:14;18.1;70.0
78704;SHT31;68034;51.966;5.676;2023-05-10T10:20:43;18.1;67.4
78704;SHT31;68034;51.966;5.676;2023-05-10T10:23:11;18.1;67.9
78704;SHT31;68034;51.966;5.676;2023-05-10T10:25:40;18.1;66.3
78704;SHT31;68034;51.966;5.676;2023-05-10T10:28:19;18.2;67.8
78704;SHT31;68034;51.966;5.676;2023-05-10T10:30:53;18.2;68.2
78704;SHT31;68034;51.966;5.676;2023-05-10T10:33:44;18.3;69.8
78704;SHT31;68034;51.966;5.676;2023-05-10T10:36:17;18.3;65.8
78704;SHT31;68034;51.966;5.676;2023-05-10T10:38:59;18.3;65.0
78704;SHT31;68034;51.966;5.676;2023-05-10T10:41:31;18.4;65.5
78704;SHT31;68034;51.966;5.676;2023-05-10T10:44:26;18.4;66.0
78704;SHT31;68034;51.966;5.676;2023-05-10T10:47:06;18.4;65.3
78704;SHT31;68034;51.966;5.676;2023-05-10T10:49:43;18.5;66.5
78704;SHT31;68034;51.966;5.676;2023-05-10T10:52:24;18.5;65.9
78704;SHT31;68034;51.966;5.676;2023-05-10T10:54:59;18.5;65.2
78704;SHT31;68034;51.966;5.676;2023-05-10T10:57:31;18.6;64.4
78704;SHT31;68034;51.966;5.676;2023-05-10T11:00:26;18.6;64.1
78704;SHT31;68034;51.966;5.676;2023-05-10T11:02:56;18.6;63.9
78704;SHT31;68034;51.966;5.676;2023-05-10T11:05:38;18.6;63.5
78704;SHT31;68034;51.966;5.676;2023-05-10T11:08:18;18.6;63.7
78704;SHT31;68034;51.966;5.676;2023-05-10T11:10:53;18.6;64.5
78704;SHT31;68034;51.966;5.676;2023-05-10T11:13:31;18.6;66.6
78704;SHT31;68034;51.966;5.676;2023-05-10T11:16:14;18.6;67.5
78704;SHT31;68034;51.966;5.676;2023-05-10T11:18:54;18.6;67.8
78704;SHT31;68034;51.966;5.676;2023-05-10T11:21:25;18.6;67.4
78704;SHT31;68034;51.966;5.676;2023-05-10T11:23:55;18.6;65.9
78704;SHT31;68034;51.966;5.676;2023-05-10T11:26:26;18.6;64.1
78704;SHT31;68034;51.966;5.676;2023-05-10T11:29:00;18.6;63.7
78704;SHT31;68034;51.966;5.676;2023-05-10T11:31:30;18.6;65.1
78704;SHT31;68034;51.966;5.676;2023-05-10T11:34:00;18.7;64.9
78704;SHT31;68034;51.966;5.676;2023-05-10T11:36:33;18.7;65.5
78704;SHT31;68034;51.966;5.676;2023-05-10T11:39:02;18.7;66.2
78704;SHT31;68034;51.966;5.676;2023-05-10T11:41:32;18.8;66.0
78704;SHT31;68034;51.966;5.676;2023-05-10T11:44:01;18.8;66.7
78704;SHT31;68034;51.966;5.676;2023-05-10T11:46:30;18.8;68.6
78704;SHT31;68034;51.966;5.676;2023-05-10T11:49:01;18.9;67.6
78704;SHT31;68034;51.966;5.676;2023-05-10T11:51:33;18.9;67.0
78704;SHT31;68034;51.966;5.676;2023-05-10T11:54:06;19.0;65.7
78704;SHT31;68034;51.966;5.676;2023-05-10T11:56:36;19.1;67.0
78704;SHT31;68034;51.966;5.676;2023-05-10T11:59:06;19.2;65.4
78704;SHT31;68034;51.966;5.676;2023-05-10T12:01:35;19.3;67.0
78704;SHT31;68034;51.966;5.676;2023-05-10T12:04:04;19.4;66.0
78704;SHT31;68034;51.966;5.676;2023-05-10T12:06:37;19.5;63.9
78704;SHT31;68034;51.966;5.676;2023-05-10T12:09:13;19.5;61.7
78704;SHT31;68034;51.966;5.676;2023-05-10T12:11:44;19.6;65.2
78704;SHT31;68034;51.966;5.676;2023-05-10T12:14:13;19.6;64.1
78704;SHT31;68034;51.966;5.676;2023-05-10T12:16:43;19.7;62.3
78704;SHT31;68034;51.966;5.676;2023-05-10T12:19:11;19.7;62.8
78704;SHT31;68034;51.966;5.676;2023-05-10T12:21:40;19.8;62.7
78704;SHT31;68034;51.966;5.676;2023-05-10T12:24:10;19.8;63.3
78704;SHT31;68034;51.966;5.676;2023-05-10T12:26:39;19.9;65.9
78704;SHT31;68034;51.966;5.676;2023-05-10T12:29:15;19.9;63.5
78704;SHT31;68034;51.966;5.676;2023-05-10T12:31:57;19.9;61.8
78704;SHT31;68034;51.966;5.676;2023-05-10T12:34:31;20.0;62.7
78704;SHT31;68034;51.966;5.676;2023-05-10T12:37:00;20.0;62.2
78704;SHT31;68034;51.966;5.676;2023-05-10T12:39:40;20.0;60.5
78704;SHT31;68034;51.966;5.676;2023-05-10T12:42:10;20.1;60.0
78704;SHT31;68034;51.966;5.676;2023-05-10T12:44:39;20.1;59.7
78704;SHT31;68034;51.966;5.676;2023-05-10T12:47:08;20.1;59.4
78704;SHT31;68034;51.966;5.676;2023-05-10T12:49:37;20.1;59.6
78704;SHT31;68034;51.966;5.676;2023-05-10T12:52:06;20.1;59.1
78704;SHT31;68034;51.966;5.676;2023-05-10T12:54:34;20.1;60.2
78704;SHT31;68034;51.966;5.676;2023-05-10T12:57:03;20.1;59.5
78704;SHT31;68034;51.966;5.676;2023-05-10T12:59:32;20.1;58.9
78704;SHT31;68034;51.966;5.676;2023-05-10T13:02:00;20.1;59.6
78704;SHT31;68034;51.966;5.676;2023-05-10T13:04:31;20.0;59.8
78704;SHT31;68034;51.966;5.676;2023-05-10T13:06:59;20.0;60.0
78704;SHT31;68034;51.966;5.676;2023-05-10T13:09:28;19.9;60.4
78704;SHT31;68034;51.966;5.676;2023-05-10T13:11:57;19.8;60.5
78704;SHT31;68034;51.966;5.676;2023-05-10T13:14:25;19.7;60.7
78704;SHT31;68034;51.966;5.676;2023-05-10T13:16:54;19.6;61.2
78704;SHT31;68034;51.966;5.676;2023-05-10T13:19:23;19.6;61.0
78704;SHT31;68034;51.966;5.676;2023-05-10T13:21:51;19.5;61.7
78704;SHT31;68034;51.966;5.676;2023-05-10T13:24:20;19.4;62.4
78704;SHT31;68034;51.966;5.676;2023-05-10T13:26:48;19.4;62.8
78704;SHT31;68034;51.966;5.676;2023-05-10T13:29:17;19.3;63.2
78704;SHT31;68034;51.966;5.676;2023-05-10T13:31:49;19.3;64.1
78704;SHT31;68034;51.966;5.676;2023-05-10T13:34:17;19.3;63.7
78704;SHT31;68034;51.966;5.676;2023-05-10T13:36:48;19.2;62.8
78704;SHT31;68034;51.966;5.676;2023-05-10T13:39:17;19.2;63.3
78704;SHT31;68034;51.966;5.676;2023-05-10T13:41:46;19.2;64.1
78704;SHT31;68034;51.966;5.676;2023-05-10T13:44:16;19.1;64.1
78704;SHT31;68034;51.966;5.676;2023-05-10T13:46:44;19.1;65.1
78704;SHT31;68034;51.966;5.676;2023-05-10T13:49:13;19.1;65.9
78704;SHT31;68034;51.966;5.676;2023-05-10T13:51:42;19.1;66.2
78704;SHT31;68034;51.966;5.676;2023-05-10T13:54:11;19.1;67.2
78704;SHT31;68034;51.966;5.676;2023-05-10T13:56:41;19.0;67.3
78704;SHT31;68034;51.966;5.676;2023-05-10T13:59:11;19.0;68.5
78704;SHT31;68034;51.966;5.676;2023-05-10T14:01:41;19.0;68.0
78704;SHT31;68034;51.966;5.676;2023-05-10T14:04:10;19.0;68.4
78704;SHT31;68034;51.966;5.676;2023-05-10T14:06:39;18.9;68.4
78704;SHT31;68034;51.966;5.676;2023-05-10T14:09:08;18.9;69.4
78704;SHT31;68034;51.966;5.676;2023-05-10T14:11:36;18.9;69.2
78704;SHT31;68034;51.966;5.676;2023-05-10T14:14:08;18.8;69.5
78704;SHT31;68034;51.966;5.676;2023-05-10T14:16:37;18.8;70.0
78704;SHT31;68034;51.966;5.676;2023-05-10T14:19:05;18.8;70.1
78704;SHT31;68034;51.966;5.676;2023-05-10T14:21:34;18.7;69.6
78704;SHT31;68034;51.966;5.676;2023-05-10T14:24:03;18.7;69.8
78704;SHT31;68034;51.966;5.676;2023-05-10T14:26:33;18.7;70.3
78704;SHT31;68034;51.966;5.676;2023-05-10T14:29:04;18.6;70.3
78704;SHT31;68034;51.966;5.676;2023-05-10T14:31:33;18.6;70.3
78704;SHT31;68034;51.966;5.676;2023-05-10T14:34:02;18.6;70.9
78704;SHT31;68034;51.966;5.676;2023-05-10T14:36:30;18.6;71.9
78704;SHT31;68034;51.966;5.676;2023-05-10T14:38:59;18.6;70.5
78704;SHT31;68034;51.966;5.676;2023-05-10T14:41:28;18.7;70.6
78704;SHT31;68034;51.966;5.676;2023-05-10T14:43:56;18.7;70.2
78704;SHT31;68034;51.966;5.676;2023-05-10T14:46:25;18.7;68.9
78704;SHT31;68034;51.966;5.676;2023-05-10T14:48:53;18.7;69.8
78704;SHT31;68034;51.966;5.676;2023-05-10T14:51:22;18.8;69.1
78704;SHT31;68034;51.966;5.676;2023-05-10T14:53:50;18.8;70.1
78704;SHT31;68034;51.966;5.676;2023-05-10T14:56:19;18.9;69.3
78704;SHT31;68034;51.966;5.676;2023-05-10T14:58:49;18.9;70.1
78704;SHT31;68034;51.966;5.676;2023-05-10T15:01:17;19.0;68.5
78704;SHT31;68034;51.966;5.676;2023-05-10T15:03:46;19.1;67.7
78704;SHT31;68034;51.966;5.676;2023-05-10T15:06:15;19.1;68.0
78704;SHT31;68034;51.966;5.676;2023-05-10T15:08:44;19.2;68.2
78704;SHT31;68034;51.966;5.676;2023-05-10T15:11:12;19.2;67.1
78704;SHT31;68034;51.966;5.676;2023-05-10T15:13:41;19.3;68.2
78704;SHT31;68034;51.966;5.676;2023-05-10T15:16:09;19.4;68.6
78704;SHT31;68034;51.966;5.676;2023-05-10T15:18:38;19.5;67.1
78704;SHT31;68034;51.966;5.676;2023-05-10T15:21:07;19.5;67.0
78704;SHT31;68034;51.966;5.676;2023-05-10T15:23:35;19.6;67.1
78704;SHT31;68034;51.966;5.676;2023-05-10T15:26:04;19.6;66.3
78704;SHT31;68034;51.966;5.676;2023-05-10T15:28:34;19.7;67.1
78704;SHT31;68034;51.966;5.676;2023-05-10T15:31:03;19.7;66.2
78704;SHT31;68034;51.966;5.676;2023-05-10T15:33:32;19.8;65.5
78704;SHT31;68034;51.966;5.676;2023-05-10T15:36:00;19.9;65.5
78704;SHT31;68034;51.966;5.676;2023-05-10T15:38:30;20.0;64.4
78704;SHT31;68034;51.966;5.676;2023-05-10T15:40:59;20.0;65.5
78704;SHT31;68034;51.966;5.676;2023-05-10T15:43:28;20.1;65.4
78704;SHT31;68034;51.966;5.676;2023-05-10T15:45:56;20.2;65.2
78704;SHT31;68034;51.966;5.676;2023-05-10T15:48:25;20.3;61.4
78704;SHT31;68034;51.966;5.676;2023-05-10T15:50:54;20.3;63.2
78704;SHT31;68034;51.966;5.676;2023-05-10T15:53:23;20.4;61.1
78704;SHT31;68034;51.966;5.676;2023-05-10T15:55:52;20.4;61.1
78704;SHT31;68034;51.966;5.676;2023-05-10T15:58:21;20.4;60.8
78704;SHT31;68034;51.966;5.676;2023-05-10T16:00:49;20.3;60.8
78704;SHT31;68034;51.966;5.676;2023-05-10T16:03:18;20.3;61.0
78704;SHT31;68034;51.966;5.676;2023-05-10T16:05:46;20.2;60.4
78704;SHT31;68034;51.966;5.676;2023-05-10T16:08:15;20.2;62.0
78704;SHT31;68034;51.966;5.676;2023-05-10T16:10:43;20.1;61.2
78704;SHT31;68034;51.966;5.676;2023-05-10T16:13:12;20.1;62.1
78704;SHT31;68034;51.966;5.676;2023-05-10T16:15:42;20.1;62.2
78704;SHT31;68034;51.966;5.676;2023-05-10T16:18:10;20.0;62.8
78704;SHT31;68034;51.966;5.676;2023-05-10T16:20:40;19.9;62.9
78704;SHT31;68034;51.966;5.676;2023-05-10T16:23:08;19.9;62.6
78704;SHT31;68034;51.966;5.676;2023-05-10T16:25:38;19.9;62.9
78704;SHT31;68034;51.966;5.676;2023-05-10T16:28:06;19.9;64.4